CA-0056 weather

CLOSED Borden Airport
Ontario, Canada

Public forecast

Using degrees Celsius for public forecast. Weather courtesy of forecast.io.

METAR (pilot weather report)

Closest report is CFB Borden, 0.4 nm (0.7 km) NNE. Retrieved 2019/05/20 18:00 UTC (39 minutes ago):

CYBN 201800Z AUTO 28013G22KT 250V310 9SM OVC024 11/06 A2981 RMK SLP096

TAF (pilot weather forecast)

Forecast is more than 12 hours old.

Closest forecast is CFB Borden, 0.4 nm (0.7 km) NNE. Retrieved 2019/05/17 18:33 UTC (3 days ago):

TAF TAF CYBN 171730Z 1718/1806 33010G20KT P6SM OVC020 TEMPO 1718/1720 33020KT SCT020 BKN030 FM172000 33015G25KT P6SM SCT030 TEMPO 1720/1724 33020KT BKN030 BECMG 1800/1802 32010KT RMK FCST BASED ON AUTO OBS. NXT FCST BY 180000Z